KDKK/DKK METAR and TAF weather

Enter ICAO airport designator
Station Type Date Time Source
KDKK METAR 2018/12/10 16:53 UTC NOAA

KDKK 101653Z AUTO 22004KT 10SM FEW019 OVC026 M01/M04 A3020 RMK AO2 SLP237 T10061039


Station Type Date Time Source
KDKK Decoded METAR 2018/12/10 16:53 UTC NOAA

Error!

Station Type Date Time Source
KDKK TAF UTC NOAA

Error!


Example: see airport list